Time;durP1;ratioP1;P1;durP2;ratioP2;P2;SDS_P1;SDS_P2;PMS_P1;PMS_P2;Temp;Humidity;BMP_temperature;BMP_pressure;BME280_temperature;BME280_humidity;BME280_pressure;Samples;Min_cycle;Max_cycle;Signal;HPM_P1;HPM_P2
2022/01/22 00:00:18;;;;;;;15.07;8.80;;;;;;;2.86;97.59;103207.09;5059443;28;20028;-83
2022/01/22 00:02:44;;;;;;;15.82;9.05;;;;;;;2.88;97.72;103208.00;5058171;28;20084;-84
2022/01/22 00:05:11;;;;;;;19.38;8.77;;;;;;;2.92;97.64;103209.84;5055203;28;20539;-84
2022/01/22 00:07:37;;;;;;;18.52;8.98;;;;;;;2.94;97.32;103206.38;5054951;28;20025;-84
2022/01/22 00:10:07;;;;;;;19.92;9.38;;;;;;;2.93;97.32;103209.88;5069673;28;20047;-84
2022/01/22 00:15:03;;;;;;;14.90;8.65;;;;;;;2.93;97.44;103209.88;5062419;28;20502;-84
2022/01/22 00:17:28;;;;;;;19.08;9.55;;;;;;;2.91;97.40;103211.59;5070043;28;20363;-83
2022/01/22 00:19:53;;;;;;;16.23;8.60;;;;;;;2.89;97.34;103209.81;5069833;28;20027;-84
2022/01/22 00:22:23;;;;;;;15.50;9.23;;;;;;;2.95;96.99;103209.91;5068533;28;20068;-84
2022/01/22 00:24:53;;;;;;;14.80;8.65;;;;;;;2.94;97.39;103209.03;5066879;28;20103;-84
2022/01/22 00:27:19;;;;;;;15.05;9.15;;;;;;;2.94;97.23;103206.38;5063874;28;20425;-84
2022/01/22 00:29:44;;;;;;;19.42;9.10;;;;;;;2.94;97.55;103203.75;5057775;28;20054;-84
2022/01/22 00:32:09;;;;;;;16.00;8.75;;;;;;;2.94;97.16;103203.75;5067640;28;20028;-84
2022/01/22 00:34:35;;;;;;;17.45;9.15;;;;;;;2.88;97.05;103190.47;5067763;28;20036;-84
2022/01/22 00:37:00;;;;;;;16.63;8.30;;;;;;;2.92;96.99;103197.56;5068628;28;20020;-84
2022/01/22 00:39:25;;;;;;;17.42;8.38;;;;;;;2.87;96.99;103179.94;5060202;28;20122;-84
2022/01/22 00:41:50;;;;;;;16.75;8.75;;;;;;;2.89;97.14;103181.75;5057865;28;20086;-84
2022/01/22 00:44:16;;;;;;;16.55;9.20;;;;;;;2.93;97.18;103201.13;5060541;28;20051;-84
2022/01/22 00:46:41;;;;;;;16.45;8.27;;;;;;;2.92;97.12;103192.31;5056995;28;20036;-84
2022/01/22 00:49:06;;;;;;;13.98;7.50;;;;;;;2.92;97.52;103196.69;5067582;28;20027;-84
2022/01/22 00:51:32;;;;;;;17.77;8.30;;;;;;;2.92;97.18;103200.19;5065633;28;20032;-83
2022/01/22 00:53:57;;;;;;;13.48;9.30;;;;;;;2.92;97.51;103197.56;5065511;28;20028;-84
2022/01/22 00:56:23;;;;;;;15.25;8.68;;;;;;;2.89;97.36;103196.66;5059271;28;20086;-84
2022/01/22 00:58:48;;;;;;;16.75;9.23;;;;;;;2.89;97.36;103184.38;5058843;28;20112;-84
2022/01/22 01:01:13;;;;;;;17.17;9.75;;;;;;;2.91;97.39;103193.16;5060027;28;20090;-84
2022/01/22 01:03:38;;;;;;;20.70;9.65;;;;;;;2.90;97.45;103198.41;5057388;28;20470;-84
2022/01/22 01:06:05;;;;;;;16.58;9.55;;;;;;;2.92;97.48;103199.31;5052239;28;20028;-84
2022/01/22 01:08:33;;;;;;;20.83;9.55;;;;;;;2.85;97.45;103193.06;5068431;28;20032;-84
2022/01/22 01:10:58;;;;;;;17.75;10.57;;;;;;;2.90;97.54;103209.81;5051692;28;20033;-84
2022/01/22 01:13:26;;;;;;;18.20;11.00;;;;;;;2.91;97.47;103211.59;5055507;28;20035;-84
2022/01/22 01:16:02;;;;;;;16.17;10.38;;;;;;;2.88;97.72;103205.38;5057638;28;20029;-84
2022/01/22 01:32:16;;;;;;;19.83;11.63;;;;;;;2.83;97.67;103189.50;5062533;28;20079;-84
2022/01/22 01:34:44;;;;;;;21.10;11.63;;;;;;;2.87;97.97;103199.22;5066261;28;20041;-84
2022/01/22 01:37:13;;;;;;;21.67;11.13;;;;;;;2.87;97.85;103206.25;5068010;28;20025;-83
2022/01/22 01:39:40;;;;;;;17.05;11.18;;;;;;;2.88;97.76;103206.25;5064599;28;20036;-84
2022/01/22 01:42:17;;;;;;;25.17;12.15;;;;;;;2.88;98.00;103203.63;5061282;28;20055;-83
2022/01/22 01:44:42;;;;;;;22.77;11.93;;;;;;;2.87;98.25;103199.22;5057490;28;20569;-84
2022/01/22 01:47:10;;;;;;;20.83;12.05;;;;;;;2.88;98.38;103197.47;5048315;28;20163;-84
2022/01/22 01:49:36;;;;;;;21.27;12.43;;;;;;;2.82;98.37;103205.28;5049109;28;20025;-84
2022/01/22 01:52:04;;;;;;;20.83;10.85;;;;;;;2.88;98.47;103203.63;5058745;28;20060;-84
2022/01/22 01:54:47;;;;;;;20.13;11.73;;;;;;;2.86;98.67;103201.84;5059595;28;20077;-84
2022/01/22 01:57:31;;;;;;;21.92;11.88;;;;;;;2.82;98.83;103200.91;5059417;28;20028;-84
2022/01/22 01:59:57;;;;;;;20.98;11.98;;;;;;;2.85;98.76;103203.59;5058139;28;20496;-84
2022/01/22 02:02:25;;;;;;;19.60;12.77;;;;;;;2.84;99.06;103199.16;5065994;28;20033;-83
2022/01/22 02:04:50;;;;;;;19.58;12.43;;;;;;;2.84;99.14;103198.28;5065719;28;20025;-84
2022/01/22 02:07:16;;;;;;;23.20;13.38;;;;;;;2.80;99.23;103191.19;5067740;28;20170;-84
2022/01/22 02:09:43;;;;;;;22.60;13.60;;;;;;;2.85;99.40;103195.69;5067826;28;20032;-84
2022/01/22 02:12:19;;;;;;;24.17;12.98;;;;;;;2.86;99.14;103197.47;5065951;28;20528;-84
2022/01/22 02:25:40;;;;;;;28.40;14.40;;;;;;;2.84;100.00;103195.66;5070459;28;19918;-84
2022/01/22 02:28:05;;;;;;;25.05;15.10;;;;;;;2.82;100.00;103194.75;5070603;28;20028;-84
2022/01/22 02:30:33;;;;;;;26.08;15.90;;;;;;;2.82;100.00;103195.63;5060861;28;20032;-84
2022/01/22 02:33:18;;;;;;;28.58;15.40;;;;;;;2.77;100.00;103186.78;5057500;28;20520;-84
2022/01/22 02:35:52;;;;;;;24.13;14.95;;;;;;;2.81;100.00;103191.25;5071833;28;20385;-84
2022/01/22 02:38:29;;;;;;;24.63;16.10;;;;;;;2.78;100.00;103193.81;5053152;28;20108;-84
2022/01/22 02:40:55;;;;;;;26.92;16.13;;;;;;;2.80;100.00;103189.47;5061293;28;20040;-84
2022/01/22 02:43:21;;;;;;;28.40;17.23;;;;;;;2.79;100.00;103177.16;5065183;28;20017;-84
2022/01/22 02:45:47;;;;;;;28.98;17.13;;;;;;;2.84;100.00;103188.66;5069361;28;20041;-84
2022/01/22 02:48:13;;;;;;;25.83;16.85;;;;;;;2.85;100.00;103194.81;5071849;28;20032;-84
2022/01/22 02:50:39;;;;;;;33.30;17.10;;;;;;;2.88;100.00;103193.09;5071219;28;20028;-83
2022/01/22 02:53:07;;;;;;;27.27;18.15;;;;;;;2.89;100.00;103199.28;5064553;28;20032;-84
2022/01/22 02:55:32;;;;;;;30.27;18.00;;;;;;;2.90;100.00;103199.28;5067990;28;20035;-84
2022/01/22 02:58:00;;;;;;;29.73;17.58;;;;;;;2.89;100.00;103194.91;5057348;28;20029;-84
2022/01/22 03:00:26;;;;;;;32.88;18.92;;;;;;;2.88;100.00;103187.84;5061532;28;20052;-84
2022/01/22 03:02:52;;;;;;;31.42;19.05;;;;;;;2.85;100.00;103190.44;5065281;28;20036;-84
2022/01/22 03:05:18;;;;;;;32.28;18.08;;;;;;;2.85;100.00;103187.81;5069829;28;20024;-84
2022/01/22 03:07:48;;;;;;;29.70;18.77;;;;;;;2.85;100.00;103190.44;5069718;28;20104;-84
2022/01/22 03:10:15;;;;;;;29.13;18.90;;;;;;;2.88;100.00;103206.25;5065783;28;20024;-85
2022/01/22 03:20:37;;;;;;;32.58;20.60;;;;;;;2.82;100.00;103186.88;5067091;28;20044;-84
2022/01/22 03:28:19;;;;;;;35.03;19.60;;;;;;;2.83;100.00;103193.88;5066952;28;20067;-83
2022/01/22 03:30:45;;;;;;;38.28;20.52;;;;;;;2.80;100.00;103193.81;5064080;28;20112;-84
2022/01/22 03:33:10;;;;;;;36.90;21.63;;;;;;;2.83;100.00;103194.78;5062013;28;20210;-84
2022/01/22 03:35:36;;;;;;;30.60;20.60;;;;;;;2.82;100.00;103200.00;5064526;28;20028;-84
2022/01/22 03:38:04;;;;;;;39.67;21.33;;;;;;;2.78;100.00;103193.81;5064691;28;20033;-84
2022/01/22 03:40:29;;;;;;;38.78;20.92;;;;;;;2.83;100.00;103191.25;5065623;28;20104;-84
2022/01/22 03:42:55;;;;;;;34.42;20.55;;;;;;;2.82;100.00;103195.63;5064899;28;20572;-84
2022/01/22 03:45:23;;;;;;;34.45;21.10;;;;;;;2.86;100.00;103200.09;5065716;28;20037;-84
2022/01/22 03:47:48;;;;;;;36.00;22.13;;;;;;;2.77;100.00;103192.03;5063902;28;20039;-84
2022/01/22 03:50:16;;;;;;;38.50;21.85;;;;;;;2.87;100.00;103206.25;5067950;28;20024;-84
2022/01/22 03:52:41;;;;;;;36.47;22.25;;;;;;;2.88;100.00;103208.00;5068378;28;20135;-84
2022/01/22 03:55:14;;;;;;;40.40;22.10;;;;;;;2.86;100.00;103201.84;5063990;28;20107;-84
2022/01/22 03:57:41;;;;;;;40.78;22.15;;;;;;;2.88;100.00;103211.53;5062874;28;20028;-84
2022/01/22 04:00:07;;;;;;;41.20;22.08;;;;;;;2.87;100.00;103208.88;5064135;28;20482;-84
2022/01/22 04:05:37;;;;;;;40.70;23.45;;;;;;;2.86;100.00;103205.34;5057017;28;20060;-84
2022/01/22 04:08:10;;;;;;;45.20;22.92;;;;;;;2.88;100.00;103203.63;5051728;28;20033;-84
2022/01/22 04:10:36;;;;;;;46.30;24.50;;;;;;;2.87;100.00;103207.13;5056117;28;20033;-84
2022/01/22 04:13:08;;;;;;;41.05;22.80;;;;;;;2.87;100.00;103217.66;5059849;28;20064;-84
2022/01/22 04:15:38;;;;;;;41.53;23.77;;;;;;;2.86;100.00;103201.84;5060420;28;20195;-83
2022/01/22 04:26:29;;;;;;;46.70;27.67;;;;;;;2.91;100.00;103202.81;5066981;28;20433;-84
2022/01/22 04:28:56;;;;;;;47.25;25.95;;;;;;;2.91;100.00;103202.81;5062421;28;20392;-84
2022/01/22 04:31:21;;;;;;;47.42;27.30;;;;;;;2.88;100.00;103201.00;5057223;28;20869;-84
2022/01/22 04:33:47;;;;;;;51.25;28.08;;;;;;;2.89;100.00;103205.44;5064412;28;20052;-84
2022/01/22 04:36:12;;;;;;;49.10;27.98;;;;;;;2.82;100.00;103190.38;5065748;28;20059;-84
2022/01/22 04:38:38;;;;;;;48.08;27.48;;;;;;;2.89;100.00;103205.44;5064665;28;20032;-84
2022/01/22 04:41:05;;;;;;;48.38;27.33;;;;;;;2.91;100.00;103202.81;5068942;28;20032;-84
2022/01/22 04:43:32;;;;;;;57.58;29.55;;;;;;;2.89;100.00;103200.16;5055814;28;20040;-84
2022/01/22 04:56:35;;;;;;;53.80;30.42;;;;;;;2.91;100.00;103198.44;5058262;28;20635;-83
2022/01/22 04:59:02;;;;;;;57.72;30.65;;;;;;;2.90;100.00;103196.66;5058210;28;20056;-84
2022/01/22 05:01:27;;;;;;;57.13;30.30;;;;;;;2.95;100.00;103205.53;5060731;28;20140;-84
2022/01/22 05:03:52;;;;;;;59.42;31.17;;;;;;;2.96;100.00;103196.75;5057328;28;20175;-84
2022/01/22 05:06:17;;;;;;;53.97;30.00;;;;;;;2.97;100.00;103195.94;5050342;28;20474;-84
2022/01/22 05:08:43;;;;;;;57.92;30.10;;;;;;;3.00;100.00;103197.72;5065404;28;20020;-84
2022/01/22 05:11:08;;;;;;;63.92;31.25;;;;;;;2.99;100.00;103193.31;5068808;28;20374;-83
2022/01/22 05:13:35;;;;;;;59.88;32.15;;;;;;;2.96;100.00;103188.88;5064198;28;20021;-84
2022/01/22 05:16:00;;;;;;;61.05;31.00;;;;;;;2.99;100.00;103191.56;5065501;28;20066;-84
2022/01/22 05:18:26;;;;;;;60.22;31.52;;;;;;;2.97;100.00;103189.78;5068405;28;20067;-84
2022/01/22 05:21:00;;;;;;;62.42;32.10;;;;;;;2.95;100.00;103192.38;5059329;28;20033;-84
2022/01/22 05:23:26;;;;;;;59.13;31.38;;;;;;;3.00;100.00;103202.97;5063598;28;20429;-84
2022/01/22 05:25:56;;;;;;;58.38;32.20;;;;;;;2.97;100.00;103190.66;5050405;28;20124;-84
2022/01/22 05:31:19;;;;;;;61.08;31.77;;;;;;;3.01;100.00;103194.25;5065979;28;20135;-84
2022/01/22 05:39:01;;;;;;;71.47;30.73;;;;;;;3.05;100.00;103201.31;5066525;28;20035;-84
2022/01/22 05:41:26;;;;;;;60.83;30.13;;;;;;;3.06;100.00;103192.56;5068571;28;20036;-85
2022/01/22 05:43:51;;;;;;;63.25;31.50;;;;;;;3.07;100.00;103188.19;5057796;28;20382;-85
2022/01/22 05:46:17;;;;;;;57.17;31.63;;;;;;;3.03;100.00;103191.63;5049112;28;20052;-84
2022/01/22 05:48:42;;;;;;;57.05;30.15;;;;;;;3.08;100.00;103197.84;5057304;28;20036;-85
2022/01/22 05:51:08;;;;;;;57.85;29.35;;;;;;;3.07;100.00;103198.72;5048953;28;20029;-84
2022/01/22 05:53:52;;;;;;;58.50;30.27;;;;;;;3.11;100.00;103205.81;5058215;28;20029;-84
2022/01/22 06:01:44;;;;;;;55.60;29.02;;;;;;;3.13;100.00;103204.97;5057041;28;20106;-85
2022/01/22 06:04:10;;;;;;;62.13;30.58;;;;;;;3.13;100.00;103209.34;5061907;28;20017;-85
2022/01/22 06:06:35;;;;;;;64.07;30.95;;;;;;;3.14;100.00;103211.13;5067433;28;20086;-85
2022/01/22 06:09:03;;;;;;;56.80;29.77;;;;;;;3.16;100.00;103214.66;5051031;28;20032;-84
2022/01/22 06:11:29;;;;;;;58.30;30.27;;;;;;;3.12;100.00;103197.06;5055713;28;20413;-84
2022/01/22 06:13:55;;;;;;;57.63;30.20;;;;;;;3.18;100.00;103207.69;5060314;28;20029;-84
2022/01/22 06:16:23;;;;;;;62.55;31.45;;;;;;;3.20;100.00;103209.47;5068815;28;20027;-84
2022/01/22 06:18:49;;;;;;;58.88;30.60;;;;;;;3.17;100.00;103200.63;5067760;28;20028;-84
2022/01/22 06:21:15;;;;;;;62.00;31.65;;;;;;;3.21;100.00;103205.09;5064874;28;20474;-84
2022/01/22 06:23:41;;;;;;;57.05;30.35;;;;;;;3.20;100.00;103208.59;5065233;28;20028;-85
2022/01/22 06:26:07;;;;;;;57.80;30.70;;;;;;;3.20;100.00;103201.59;5068219;28;20231;-85
2022/01/22 06:28:33;;;;;;;56.20;28.85;;;;;;;3.23;100.00;103200.75;5050159;28;20082;-85
2022/01/22 06:30:59;;;;;;;55.95;31.02;;;;;;;3.24;100.00;103202.53;5067640;28;20036;-85
2022/01/22 06:33:25;;;;;;;57.55;30.38;;;;;;;3.24;100.00;103203.41;5065010;28;20041;-85
2022/01/22 06:35:51;;;;;;;68.90;30.88;;;;;;;3.18;100.00;103191.91;5063491;28;20085;-86
2022/01/22 06:38:17;;;;;;;58.92;29.63;;;;;;;3.24;100.00;103203.41;5066482;28;20047;-86
2022/01/22 06:43:08;;;;;;;59.58;29.55;;;;;;;3.26;100.00;103211.34;5061197;28;20075;-83
2022/01/22 06:45:33;;;;;;;59.53;29.15;;;;;;;3.27;100.00;103214.88;5064680;28;20137;-83
2022/01/22 06:47:59;;;;;;;57.17;29.83;;;;;;;3.28;100.00;103214.88;5067771;28;20023;-83
2022/01/22 06:50:24;;;;;;;55.85;28.98;;;;;;;3.24;100.00;103216.56;5063796;28;20166;-82
2022/01/22 06:52:57;;;;;;;59.22;30.27;;;;;;;3.30;100.00;103222.78;5065733;28;20064;-84
2022/01/22 06:55:35;;;;;;;60.43;29.93;;;;;;;3.30;100.00;103222.78;5067529;28;20032;-84
2022/01/22 06:58:01;;;;;;;56.72;27.88;;;;;;;3.30;100.00;103215.78;5058245;28;20270;-84
2022/01/22 07:00:26;;;;;;;60.25;31.00;;;;;;;3.30;100.00;103222.78;5065037;28;20029;-84
2022/01/22 07:02:51;;;;;;;56.78;29.30;;;;;;;3.27;100.00;103220.13;5066161;28;20028;-87
2022/01/22 07:05:17;;;;;;;59.28;29.58;;;;;;;3.29;100.00;103232.44;5071328;28;20044;-84
2022/01/22 07:07:42;;;;;;;59.10;28.70;;;;;;;3.27;100.00;103221.00;5069625;28;20035;-84
2022/01/22 07:10:07;;;;;;;60.85;30.70;;;;;;;3.30;100.00;103228.06;5066565;28;20521;-83
2022/01/22 07:12:33;;;;;;;54.67;28.73;;;;;;;3.25;100.00;103231.50;5069807;28;20040;-82
2022/01/22 07:14:58;;;;;;;58.42;29.42;;;;;;;3.28;100.00;103235.94;5068803;28;20103;-84
2022/01/22 07:17:23;;;;;;;50.65;27.00;;;;;;;3.32;100.00;103248.28;5068446;28;20393;-82
2022/01/22 07:19:52;;;;;;;54.33;28.25;;;;;;;3.35;100.00;103248.34;5060775;28;20017;-83
2022/01/22 07:25:01;;;;;;;;;;;;;;;3.37;100.00;103266.81;5051418;28;20059;-84
2022/01/22 07:27:26;;;;;;;52.47;25.05;;;;;;;3.31;100.00;103261.44;5050394;28;20381;-83
2022/01/22 07:29:52;;;;;;;51.88;26.13;;;;;;;3.36;100.00;103267.66;5056132;28;20031;-83
2022/01/22 07:32:27;;;;;;;54.75;27.25;;;;;;;3.28;100.00;103256.13;5066610;28;20095;-85
2022/01/22 07:34:52;;;;;;;53.50;26.60;;;;;;;3.30;100.00;103263.16;5063189;28;20071;-82
2022/01/22 07:37:18;;;;;;;55.78;27.23;;;;;;;3.31;100.00;103266.72;5071212;28;20111;-83
2022/01/22 07:39:43;;;;;;;52.88;26.50;;;;;;;3.35;100.00;103281.69;5062216;28;20378;-83
2022/01/22 07:42:08;;;;;;;52.22;28.35;;;;;;;3.35;100.00;103285.22;5056523;28;20529;-83
2022/01/22 07:44:34;;;;;;;51.95;27.55;;;;;;;3.31;100.00;103270.22;5051969;28;20510;-83
2022/01/22 07:46:59;;;;;;;56.70;27.55;;;;;;;3.36;100.00;103281.72;5066266;28;20041;-83
2022/01/22 07:49:24;;;;;;;53.92;26.58;;;;;;;3.38;100.00;103284.38;5070385;28;20056;-82
2022/01/22 07:51:50;;;;;;;56.17;26.20;;;;;;;3.38;100.00;103277.34;5054889;28;20436;-83
2022/01/22 07:54:15;;;;;;;53.88;28.55;;;;;;;3.37;100.00;103269.44;5069047;28;20033;-83
2022/01/22 07:56:40;;;;;;;56.35;26.17;;;;;;;3.37;100.00;103264.16;5066169;28;20202;-83
2022/01/22 07:59:06;;;;;;;51.85;26.67;;;;;;;3.42;100.00;103273.91;5062253;28;20031;-84
2022/01/22 08:01:31;;;;;;;58.30;27.33;;;;;;;3.47;100.00;103268.75;5068613;28;20028;-84
2022/01/22 08:03:56;;;;;;;53.45;27.05;;;;;;;3.47;100.00;103261.75;5069791;28;20028;-84
2022/01/22 08:06:22;;;;;;;51.65;26.65;;;;;;;3.49;100.00;103267.00;5066689;28;20188;-83
2022/01/22 08:08:47;;;;;;;51.10;26.23;;;;;;;3.50;100.00;103260.88;5052979;28;20378;-84
2022/01/22 08:11:12;;;;;;;57.67;26.98;;;;;;;3.49;100.00;103261.75;5065519;28;20034;-83
2022/01/22 08:13:37;;;;;;;50.38;26.35;;;;;;;3.51;100.00;103260.00;5067686;28;20120;-84
2022/01/22 08:16:03;;;;;;;54.80;27.48;;;;;;;3.55;100.00;103261.84;5068320;28;20159;-84
2022/01/22 08:18:28;;;;;;;54.97;26.38;;;;;;;3.57;100.00;103261.88;5069804;28;20470;-84
2022/01/22 08:20:53;;;;;;;53.58;27.25;;;;;;;3.60;100.00;103267.22;5065792;28;20033;-84
2022/01/22 08:23:20;;;;;;;60.92;28.38;;;;;;;3.62;100.00;103270.75;5062783;28;20029;-84
2022/01/22 08:25:46;;;;;;;51.67;26.23;;;;;;;3.64;100.00;103269.91;5064087;28;20510;-84
2022/01/22 08:30:56;;;;;;;47.95;24.50;;;;;;;3.66;100.00;103257.66;5066116;28;20039;-84
2022/01/22 08:35:53;;;;;;;54.40;25.90;;;;;;;3.73;100.00;103263.91;5059331;28;20040;-84
2022/01/22 08:38:19;;;;;;;48.25;25.23;;;;;;;3.79;100.00;103266.63;5067459;28;20033;-84
2022/01/22 08:40:45;;;;;;;44.78;23.15;;;;;;;3.85;100.00;103265.88;5067204;28;20070;-84
2022/01/22 08:43:10;;;;;;;42.72;23.02;;;;;;;3.91;100.00;103269.47;5073854;28;20455;-84
2022/01/22 08:45:36;;;;;;;42.60;22.85;;;;;;;3.98;100.00;103279.25;5067053;28;20071;-84
2022/01/22 08:48:02;;;;;;;43.10;22.50;;;;;;;3.94;100.00;103251.06;5066505;28;20035;-83
2022/01/22 08:50:28;;;;;;;43.47;22.73;;;;;;;3.95;100.00;103258.09;5067010;28;20546;-84
2022/01/22 08:52:53;;;;;;;43.83;23.90;;;;;;;4.02;100.00;103277.53;5068983;28;20020;-84
2022/01/22 08:55:18;;;;;;;45.22;23.52;;;;;;;4.02;100.00;103272.28;5069356;28;20016;-84
2022/01/22 08:57:49;;;;;;;44.67;23.42;;;;;;;4.06;100.00;103282.00;5062145;28;20029;-84
2022/01/22 09:00:15;;;;;;;42.70;22.17;;;;;;;4.09;100.00;103284.66;5065454;28;20817;-84
2022/01/22 09:02:41;;;;;;;42.55;22.30;;;;;;;4.12;100.00;103292.63;5062993;28;20017;-86
2022/01/22 09:05:06;;;;;;;41.40;22.42;;;;;;;4.13;100.00;103291.75;5065071;28;20051;-85
2022/01/22 09:07:31;;;;;;;41.00;22.45;;;;;;;4.17;100.00;103292.69;5056386;28;20041;-85
2022/01/22 09:09:57;;;;;;;41.67;21.92;;;;;;;4.18;100.00;103289.19;5063922;28;20066;-84
2022/01/22 09:12:22;;;;;;;42.83;22.05;;;;;;;4.18;100.00;103289.19;5068227;28;20021;-84
2022/01/22 09:14:47;;;;;;;41.63;20.42;;;;;;;4.23;100.00;103290.16;5065339;28;20051;-84
2022/01/22 09:17:13;;;;;;;40.60;20.25;;;;;;;4.23;100.00;103291.03;5067096;28;20499;-84
2022/01/22 09:19:39;;;;;;;39.75;20.67;;;;;;;4.30;100.00;103306.94;5067975;28;20016;-85
2022/01/22 09:22:06;;;;;;;41.72;20.55;;;;;;;4.37;100.00;103314.97;5068313;28;20024;-84
2022/01/22 09:24:32;;;;;;;42.15;20.80;;;;;;;4.40;100.00;103308.84;5061600;28;20032;-84
2022/01/22 09:26:59;;;;;;;39.67;19.98;;;;;;;4.41;100.00;103311.50;5064440;28;20047;-85
2022/01/22 09:29:26;;;;;;;32.70;19.23;;;;;;;4.38;100.00;103311.44;5059603;28;20039;-84
2022/01/22 09:31:51;;;;;;;34.65;19.40;;;;;;;4.42;100.00;103310.63;5068526;28;20043;-84
2022/01/22 09:34:16;;;;;;;39.42;18.92;;;;;;;4.41;100.00;103298.31;5063755;28;20017;-85
2022/01/22 09:36:42;;;;;;;35.15;19.08;;;;;;;4.48;100.00;103305.44;5055438;28;20033;-85
2022/01/22 09:39:08;;;;;;;38.38;19.83;;;;;;;4.50;100.00;103301.06;5064517;28;20028;-86
2022/01/22 09:41:33;;;;;;;38.50;19.00;;;;;;;4.57;100.00;103307.31;5067274;28;20138;-86
2022/01/22 09:43:58;;;;;;;36.40;18.83;;;;;;;4.60;100.00;103310.03;5063347;28;20029;-85
2022/01/22 09:46:26;;;;;;;34.40;18.63;;;;;;;4.66;100.00;103312.72;5065886;28;20036;-86
2022/01/22 09:48:52;;;;;;;33.17;18.60;;;;;;;4.72;100.00;103322.47;5066529;28;20032;-85
2022/01/22 09:51:18;;;;;;;33.55;18.45;;;;;;;4.75;100.00;103328.66;5067638;28;20082;-85
2022/01/22 09:53:44;;;;;;;34.95;20.02;;;;;;;4.78;100.00;103330.47;5075202;28;20039;-85
2022/01/22 09:56:11;;;;;;;32.72;18.65;;;;;;;4.77;100.00;103333.97;5077915;28;20082;-85
2022/01/22 09:58:36;;;;;;;36.65;19.27;;;;;;;4.78;100.00;103340.13;5062164;28;20021;-85
2022/01/22 10:01:25;;;;;;;32.53;19.42;;;;;;;4.76;100.00;103332.19;5049833;28;20413;-86
2022/01/22 10:03:53;;;;;;;32.50;19.33;;;;;;;4.76;100.00;103332.19;5066398;28;20094;-84
2022/01/22 10:06:21;;;;;;;34.88;19.65;;;;;;;4.84;100.00;103329.66;5065033;28;20470;-89
2022/01/22 10:08:47;;;;;;;28.85;18.98;;;;;;;4.86;100.00;103331.44;5055279;28;20039;-84
2022/01/22 10:11:32;;;;;;;33.38;18.95;;;;;;;4.88;100.00;103329.69;5047749;28;20021;-85
2022/01/22 10:13:59;;;;;;;37.30;19.30;;;;;;;4.87;100.00;103330.56;5048819;28;20025;-85
2022/01/22 10:16:32;;;;;;;37.28;19.40;;;;;;;4.89;100.00;103336.78;5054316;28;20036;-85
2022/01/22 10:19:20;;;;;;;35.55;19.13;;;;;;;4.95;100.00;103343.88;5067928;28;20029;-85
2022/01/22 10:21:57;;;;;;;32.67;19.17;;;;;;;4.94;100.00;103335.06;5068769;28;20028;-85
2022/01/22 10:27:29;;;;;;;29.27;18.50;;;;;;;4.90;100.00;103335.03;5065218;28;20032;-86
2022/01/22 10:30:05;;;;;;;36.45;19.15;;;;;;;4.91;100.00;103336.78;5057864;28;20036;-85
2022/01/22 10:32:43;;;;;;;34.22;20.17;;;;;;;4.93;100.00;103333.31;5055016;28;20029;-84
2022/01/22 10:35:29;;;;;;;34.00;19.65;;;;;;;4.99;100.00;103338.66;5062681;28;20040;-86
2022/01/22 10:38:01;;;;;;;37.50;20.77;;;;;;;4.99;100.00;103335.13;5051942;28;20375;-86
2022/01/22 10:40:36;;;;;;;39.42;20.40;;;;;;;4.93;100.00;103328.03;5055939;28;20746;-85
2022/01/22 10:43:30;;;;;;;37.13;21.45;;;;;;;4.99;100.00;103325.44;5065856;28;20029;-86
2022/01/22 10:48:40;;;;;;;37.35;20.48;;;;;;;4.93;100.00;103333.31;5068346;28;20041;-87
2022/01/22 10:51:14;;;;;;;37.00;20.15;;;;;;;4.95;100.00;103330.69;5060019;28;20027;-86
2022/01/22 10:53:46;;;;;;;35.15;20.50;;;;;;;4.97;99.96;103340.41;5071579;28;20270;-85
2022/01/22 10:56:16;;;;;;;34.10;19.63;;;;;;;4.95;100.00;103341.25;5068354;28;20048;-85
2022/01/22 10:59:09;;;;;;;34.83;20.48;;;;;;;4.99;100.00;103353.59;5071674;28;20079;-86
2022/01/22 11:01:43;;;;;;;37.55;20.42;;;;;;;4.96;100.00;103343.88;5052561;28;20044;-84
2022/01/22 11:04:11;;;;;;;32.90;19.38;;;;;;;4.97;100.00;103337.75;5065517;28;20067;-87
2022/01/22 11:06:38;;;;;;;40.28;21.23;;;;;;;4.95;100.00;103339.47;5060717;28;20040;-87
2022/01/22 11:09:06;;;;;;;36.90;20.77;;;;;;;4.95;100.00;103331.56;5050829;28;20029;-85
2022/01/22 11:11:36;;;;;;;36.13;20.35;;;;;;;5.03;100.00;103341.34;5052094;28;20367;-87
2022/01/22 11:14:03;;;;;;;32.25;19.55;;;;;;;5.02;99.99;103340.44;5064548;28;20082;-86
2022/01/22 11:16:30;;;;;;;34.88;20.10;;;;;;;5.00;99.97;103332.50;5068773;28;20021;-87
2022/01/22 11:18:56;;;;;;;34.97;19.08;;;;;;;5.02;100.00;103332.53;5071575;28;20037;-87
2022/01/22 11:21:22;;;;;;;33.33;20.13;;;;;;;5.00;99.84;103328.97;5071500;28;20036;-86
2022/01/22 11:23:48;;;;;;;38.10;20.73;;;;;;;4.99;100.00;103314.91;5071042;28;20020;-87
2022/01/22 11:26:15;;;;;;;39.53;20.30;;;;;;;5.04;99.93;103314.06;5067394;28;20060;-87
2022/01/22 11:28:50;;;;;;;32.10;19.17;;;;;;;5.00;99.97;103307.84;5070515;28;20039;-86
2022/01/22 11:31:17;;;;;;;33.97;19.17;;;;;;;5.04;99.96;103311.44;5068669;28;20031;-86
2022/01/22 11:33:45;;;;;;;32.85;19.38;;;;;;;5.04;99.64;103312.31;5057574;28;20104;-86
2022/01/22 11:36:22;;;;;;;34.90;20.30;;;;;;;5.02;99.70;103311.41;5068591;28;20325;-86
2022/01/22 11:38:56;;;;;;;38.05;20.50;;;;;;;5.08;99.71;103308.84;5070598;28;20446;-86
2022/01/22 11:41:23;;;;;;;34.50;19.77;;;;;;;5.10;99.88;103307.13;5070846;28;20082;-86
2022/01/22 11:46:35;;;;;;;32.67;20.25;;;;;;;5.17;99.30;103308.03;5067885;28;20493;-86
2022/01/22 11:49:22;;;;;;;32.20;21.45;;;;;;;5.18;99.08;103312.44;5070349;28;20032;-84
2022/01/22 11:51:53;;;;;;;35.53;21.70;;;;;;;5.18;98.52;103307.16;5070975;28;20052;-86
2022/01/22 11:54:22;;;;;;;39.20;22.30;;;;;;;5.17;98.66;103302.75;5065129;28;20025;-86
2022/01/22 11:56:53;;;;;;;40.72;22.15;;;;;;;5.17;98.95;103305.41;5065745;28;20032;-86
2022/01/22 11:59:27;;;;;;;37.05;22.73;;;;;;;5.21;98.50;103312.50;5070341;28;20035;-85
2022/01/22 12:01:59;;;;;;;37.45;22.98;;;;;;;5.23;98.36;103316.06;5070417;28;20027;-86
2022/01/22 12:04:28;;;;;;;37.15;22.00;;;;;;;5.22;98.55;103307.25;5069026;28;20036;-86
2022/01/22 12:07:02;;;;;;;38.20;22.25;;;;;;;5.28;98.85;103318.75;5068140;28;20050;-86
2022/01/22 12:09:31;;;;;;;36.70;23.33;;;;;;;5.28;97.88;103314.34;5070569;28;20033;-86
2022/01/22 12:14:56;;;;;;;39.50;23.35;;;;;;;5.30;97.93;103307.31;5054500;28;20047;-86
2022/01/22 12:18:03;;;;;;;40.92;23.23;;;;;;;5.33;98.18;103312.63;5067460;28;20033;-86
2022/01/22 12:23:09;;;;;;;43.50;23.08;;;;;;;5.28;97.57;103314.34;5069806;28;20037;-87
2022/01/22 12:25:34;;;;;;;40.15;23.25;;;;;;;5.30;97.47;103309.06;5067732;28;20810;-86
2022/01/22 12:28:01;;;;;;;40.60;22.80;;;;;;;5.31;97.91;103305.53;5066710;28;20068;-87
2022/01/22 12:30:39;;;;;;;40.22;23.35;;;;;;;5.33;97.99;103303.81;5062931;28;20033;-87
2022/01/22 12:33:09;;;;;;;41.90;22.52;;;;;;;5.33;97.74;103309.09;5049889;28;20029;-85
2022/01/22 12:35:45;;;;;;;45.88;24.70;;;;;;;5.23;97.54;103303.72;5056491;28;20132;-86
2022/01/22 12:38:35;;;;;;;45.00;23.73;;;;;;;5.31;98.25;103309.09;5068012;28;20111;-86
2022/01/22 12:41:28;;;;;;;42.60;23.92;;;;;;;5.26;98.39;103316.06;5068865;28;20024;-86
2022/01/22 12:46:49;;;;;;;38.83;23.02;;;;;;;5.12;98.99;103315.03;5068427;28;20049;-88
2022/01/22 12:49:15;;;;;;;40.83;22.60;;;;;;;5.09;99.32;103309.72;5068577;28;20024;-85
2022/01/22 12:51:41;;;;;;;43.40;23.55;;;;;;;5.06;99.38;103310.59;5069429;28;20404;-91
2022/01/22 12:54:06;;;;;;;47.88;24.08;;;;;;;5.07;99.86;103319.38;5067881;28;20025;-89
2022/01/22 12:59:03;;;;;;;42.65;24.88;;;;;;;5.01;99.87;103320.19;5050266;28;20041;-89
2022/01/22 13:01:31;;;;;;;45.45;25.25;;;;;;;4.97;100.00;103315.72;5055271;28;20036;-90